Time;durP1;ratioP1;P1;durP2;ratioP2;P2;SDS_P1;SDS_P2;PMS_P1;PMS_P2;Temp;Humidity;BMP_temperature;BMP_pressure;BME280_temperature;BME280_humidity;BME280_pressure;Samples;Min_cycle;Max_cycle;Signal;HPM_P1;HPM_P2
2021/12/16 00:02:00;;;;;;;18.02;9.98;;;;;;;;;;5001194;28;20518;-85
2021/12/16 00:10:03;;;;;;;20.55;11.25;;;;;;;;;;5003249;28;20030;-85
2021/12/16 00:34:45;;;;;;;19.60;10.65;;;;;;;;;;4988939;28;20037;-84
2021/12/16 00:37:11;;;;;;;19.00;10.52;;;;;;;;;;4997005;28;20102;-84
2021/12/16 00:39:38;;;;;;;18.50;11.40;;;;;;;;;;4997059;28;20037;-84
2021/12/16 00:42:10;;;;;;;20.48;10.70;;;;;;;;;;5000049;28;20031;-85
2021/12/16 00:49:38;;;;;;;22.90;10.95;;;;;;;;;;5000689;28;20090;-84
2021/12/16 00:54:59;;;;;;;20.40;11.32;;;;;;;;;;4999991;28;20514;-84
2021/12/16 00:57:25;;;;;;;18.55;10.68;;;;;;;;;;4998109;28;20026;-84
2021/12/16 00:59:53;;;;;;;21.90;12.93;;;;;;;;;;4999462;28;20082;-84
2021/12/16 01:08:00;;;;;;;22.98;11.50;;;;;;;;;;5011999;28;20241;-84
2021/12/16 01:36:12;;;;;;;14.73;9.57;;;;;;;;;;5000107;28;20045;-83
2021/12/16 01:57:10;;;;;;;15.25;8.82;;;;;;;;;;4993532;28;20057;-84
2021/12/16 01:59:39;;;;;;;19.98;10.43;;;;;;;;;;4994559;28;20033;-84
2021/12/16 02:02:25;;;;;;;17.08;9.93;;;;;;;;;;5001552;28;20403;-84
2021/12/16 02:10:17;;;;;;;14.57;9.40;;;;;;;;;;4994475;28;20026;-84
2021/12/16 02:29:22;;;;;;;15.70;8.95;;;;;;;;;;4997688;28;20088;-84
2021/12/16 02:32:13;;;;;;;15.13;9.07;;;;;;;;;;5013198;28;20368;-84
2021/12/16 02:37:15;;;;;;;14.27;8.60;;;;;;;;;;5000785;28;20109;-84
2021/12/16 02:39:42;;;;;;;15.63;8.75;;;;;;;;;;5002083;28;20050;-83
2021/12/16 02:42:16;;;;;;;14.93;8.48;;;;;;;;;;5001511;28;20672;-84
2021/12/16 02:50:12;;;;;;;11.70;7.63;;;;;;;;;;5008460;28;20165;-86
2021/12/16 02:52:39;;;;;;;13.63;8.52;;;;;;;;;;5003871;28;20030;-84
2021/12/16 02:55:06;;;;;;;17.90;8.80;;;;;;;;;;5002407;28;20023;-83
2021/12/16 02:57:46;;;;;;;16.95;9.07;;;;;;;;;;5003216;28;20065;-84
2021/12/16 03:00:15;;;;;;;18.90;9.25;;;;;;;;;;5002608;28;20032;-84
2021/12/16 03:02:41;;;;;;;19.95;8.95;;;;;;;;;;5002567;28;20046;-84
2021/12/16 03:05:09;;;;;;;15.68;8.30;;;;;;;;;;5001948;28;20215;-84
2021/12/16 03:07:35;;;;;;;17.38;10.48;;;;;;;;;;5000646;28;20080;-84
2021/12/16 03:15:18;;;;;;;14.73;8.48;;;;;;;;;;5020769;28;20069;-85
2021/12/16 03:17:55;;;;;;;18.10;9.40;;;;;;;;;;5019740;28;20033;-84
2021/12/16 03:20:45;;;;;;;15.20;9.00;;;;;;;;;;5019806;28;20026;-84
2021/12/16 03:31:11;;;;;;;14.50;8.32;;;;;;;;;;5006571;28;20018;-83
2021/12/16 03:33:55;;;;;;;17.80;9.25;;;;;;;;;;5019074;28;20064;-84
2021/12/16 03:38:51;;;;;;;17.50;9.45;;;;;;;;;;5000877;28;20053;-84
2021/12/16 03:41:17;;;;;;;16.20;8.98;;;;;;;;;;4999995;28;20044;-83
2021/12/16 03:43:45;;;;;;;18.55;10.10;;;;;;;;;;5000471;28;20027;-83
2021/12/16 03:48:52;;;;;;;15.27;9.30;;;;;;;;;;4999268;28;20031;-84
2021/12/16 03:51:18;;;;;;;17.02;10.02;;;;;;;;;;4998372;28;20122;-83
2021/12/16 03:53:45;;;;;;;18.65;10.23;;;;;;;;;;4998946;28;20049;-84
2021/12/16 03:56:12;;;;;;;17.88;9.73;;;;;;;;;;4998952;28;20038;-82
2021/12/16 03:58:39;;;;;;;19.77;11.13;;;;;;;;;;4999430;28;20065;-84
2021/12/16 04:01:08;;;;;;;17.17;10.43;;;;;;;;;;4999793;28;20030;-86
2021/12/16 04:03:34;;;;;;;19.92;10.52;;;;;;;;;;4981808;28;20457;-83
2021/12/16 04:06:00;;;;;;;19.60;10.98;;;;;;;;;;4981119;28;20155;-84
2021/12/16 04:08:26;;;;;;;16.08;10.40;;;;;;;;;;4998863;28;20022;-84
2021/12/16 04:11:04;;;;;;;16.83;9.02;;;;;;;;;;4992799;28;20028;-84
2021/12/16 04:13:30;;;;;;;17.85;9.35;;;;;;;;;;5016065;28;20072;-84
2021/12/16 04:15:57;;;;;;;19.00;8.95;;;;;;;;;;5011890;28;20015;-84
2021/12/16 04:18:23;;;;;;;17.88;8.95;;;;;;;;;;4980892;28;20030;-84
2021/12/16 04:20:49;;;;;;;13.77;8.55;;;;;;;;;;4998999;28;20027;-83
2021/12/16 04:23:18;;;;;;;17.30;9.82;;;;;;;;;;4981605;28;20061;-84
2021/12/16 04:25:45;;;;;;;19.55;9.60;;;;;;;;;;4998682;28;20476;-82
2021/12/16 04:28:14;;;;;;;13.70;8.75;;;;;;;;;;4979377;28;20030;-83
2021/12/16 04:30:40;;;;;;;17.85;9.75;;;;;;;;;;5002102;28;20475;-83
2021/12/16 04:33:06;;;;;;;13.55;8.75;;;;;;;;;;5003789;28;20037;-84
2021/12/16 04:35:33;;;;;;;15.85;9.48;;;;;;;;;;4998034;28;20023;-83
2021/12/16 04:37:59;;;;;;;18.20;9.05;;;;;;;;;;4997469;28;20096;-83
2021/12/16 04:40:27;;;;;;;20.17;9.68;;;;;;;;;;4997597;28;20396;-84
2021/12/16 04:42:59;;;;;;;16.13;9.82;;;;;;;;;;4997118;28;20027;-83
2021/12/16 04:45:25;;;;;;;14.90;8.93;;;;;;;;;;4997448;28;20053;-83
2021/12/16 04:47:51;;;;;;;13.02;8.00;;;;;;;;;;4979521;28;20171;-83
2021/12/16 04:50:17;;;;;;;16.33;8.85;;;;;;;;;;4998578;28;20030;-83
2021/12/16 04:52:43;;;;;;;17.48;9.77;;;;;;;;;;4998650;28;20078;-85
2021/12/16 04:55:11;;;;;;;14.48;8.77;;;;;;;;;;4980214;28;20052;-85
2021/12/16 04:57:38;;;;;;;18.35;9.27;;;;;;;;;;4998276;28;20022;-84
2021/12/16 05:00:08;;;;;;;17.70;9.13;;;;;;;;;;4999205;28;20097;-84
2021/12/16 05:02:34;;;;;;;20.15;10.02;;;;;;;;;;4980785;28;20030;-85
2021/12/16 05:05:00;;;;;;;18.63;9.85;;;;;;;;;;4999593;28;20026;-85
2021/12/16 05:07:26;;;;;;;17.95;10.18;;;;;;;;;;4998785;28;20053;-84
2021/12/16 05:10:05;;;;;;;23.70;10.00;;;;;;;;;;4985139;28;20037;-85
2021/12/16 05:12:35;;;;;;;20.10;9.82;;;;;;;;;;5016693;28;20471;-84
2021/12/16 05:15:01;;;;;;;20.20;10.37;;;;;;;;;;4998040;28;20033;-85
2021/12/16 05:17:39;;;;;;;25.95;14.27;;;;;;;;;;4980618;28;20415;-83
2021/12/16 05:20:09;;;;;;;23.17;14.70;;;;;;;;;;4997821;28;20059;-84
2021/12/16 05:25:53;;;;;;;17.80;10.18;;;;;;;;;;4997849;28;20037;-84
2021/12/16 05:28:07;;;;;;;18.05;10.30;;;;;;;;;;4995925;28;20026;-84
2021/12/16 05:30:33;;;;;;;18.52;10.23;;;;;;;;;;5000077;28;20018;-84
2021/12/16 05:32:59;;;;;;;19.83;11.50;;;;;;;;;;5002771;28;20054;-84
2021/12/16 05:35:26;;;;;;;24.77;11.93;;;;;;;;;;4997368;28;20030;-84
2021/12/16 05:37:52;;;;;;;22.30;10.70;;;;;;;;;;4997035;28;20117;-84
2021/12/16 05:40:24;;;;;;;24.45;12.27;;;;;;;;;;5001315;28;20027;-84
2021/12/16 05:42:50;;;;;;;16.73;9.55;;;;;;;;;;5005690;28;20045;-84
2021/12/16 05:45:16;;;;;;;21.75;10.85;;;;;;;;;;5009304;28;20034;-84
2021/12/16 05:47:43;;;;;;;19.85;11.57;;;;;;;;;;4992138;28;20037;-84
2021/12/16 05:50:09;;;;;;;26.60;13.57;;;;;;;;;;5061408;22;20063;-84
2021/12/16 05:52:36;;;;;;;25.35;14.15;;;;;;;;;;4971031;28;20030;-83
2021/12/16 05:55:02;;;;;;;18.55;10.88;;;;;;;;;;4983757;28;20027;-83
2021/12/16 05:57:28;;;;;;;21.02;11.57;;;;;;;;;;4966819;28;20396;-84
2021/12/16 05:59:54;;;;;;;23.52;14.00;;;;;;;;;;4975923;28;20059;-82
2021/12/16 06:02:20;;;;;;;26.58;13.40;;;;;;;;;;4983124;28;20038;-82
2021/12/16 06:04:50;;;;;;;25.73;14.40;;;;;;;;;;4971641;28;20023;-85
2021/12/16 06:07:16;;;;;;;18.98;10.70;;;;;;;;;;4976185;28;20037;-85
2021/12/16 06:09:43;;;;;;;25.40;13.15;;;;;;;;;;4977932;28;20092;-82
2021/12/16 06:12:09;;;;;;;24.15;12.68;;;;;;;;;;4976160;28;20041;-83
2021/12/16 06:27:49;;;;;;;30.23;16.88;;;;;;;;;;4993834;28;20570;-83
2021/12/16 06:30:16;;;;;;;26.13;15.48;;;;;;;;;;4987819;28;20027;-83
2021/12/16 06:32:42;;;;;;;31.95;16.35;;;;;;;;;;4967179;28;20030;-84
2021/12/16 06:35:10;;;;;;;30.35;16.80;;;;;;;;;;4990697;28;20023;-84
2021/12/16 06:37:36;;;;;;;32.72;17.90;;;;;;;;;;4978691;28;20031;-83
2021/12/16 06:40:04;;;;;;;30.67;16.67;;;;;;;;;;4968991;28;20507;-80
2021/12/16 06:42:31;;;;;;;28.08;16.30;;;;;;;;;;4984848;28;20101;-81
2021/12/16 06:45:05;;;;;;;33.65;18.65;;;;;;;;;;4979935;28;20072;-80
2021/12/16 06:47:40;;;;;;;30.33;17.90;;;;;;;;;;4993770;28;20050;-81
2021/12/16 06:50:07;;;;;;;30.55;16.83;;;;;;;;;;4985014;28;20023;-84
2021/12/16 06:52:39;;;;;;;30.77;17.08;;;;;;;;;;4983980;28;20026;-82
2021/12/16 06:55:16;;;;;;;31.00;17.70;;;;;;;;;;4982269;28;20102;-83
2021/12/16 06:57:49;;;;;;;28.05;16.13;;;;;;;;;;4979455;28;20239;-83
2021/12/16 07:00:27;;;;;;;29.00;16.38;;;;;;;;;;4993302;28;20054;-82
2021/12/16 07:05:20;;;;;;;32.72;18.00;;;;;;;;;;4987768;28;20484;-81
2021/12/16 07:07:47;;;;;;;29.52;16.75;;;;;;;;;;4996826;28;20093;-81
2021/12/16 07:10:14;;;;;;;32.15;16.45;;;;;;;;;;4996404;28;20030;-80
2021/12/16 07:12:46;;;;;;;25.92;15.32;;;;;;;;;;4994024;28;20114;-81
2021/12/16 07:15:14;;;;;;;24.42;15.25;;;;;;;;;;4977260;28;20027;-80
2021/12/16 07:17:40;;;;;;;28.38;15.80;;;;;;;;;;4976680;28;20031;-79
2021/12/16 07:20:07;;;;;;;30.67;16.55;;;;;;;;;;4976887;28;20027;-82
2021/12/16 07:22:36;;;;;;;29.48;14.45;;;;;;;;;;4977056;28;20023;-82
2021/12/16 07:25:03;;;;;;;29.17;15.50;;;;;;;;;;4977417;28;20027;-80
2021/12/16 07:27:30;;;;;;;31.23;16.65;;;;;;;;;;4976058;28;20035;-80
2021/12/16 07:29:56;;;;;;;31.45;16.50;;;;;;;;;;4977987;28;20061;-83
2021/12/16 07:32:22;;;;;;;27.13;16.15;;;;;;;;;;4976647;28;20480;-83
2021/12/16 07:34:50;;;;;;;32.92;16.38;;;;;;;;;;4975844;28;20026;-81
2021/12/16 07:37:16;;;;;;;27.63;15.63;;;;;;;;;;4989165;28;20451;-80
2021/12/16 07:39:44;;;;;;;25.85;14.48;;;;;;;;;;4988171;28;20395;-80
2021/12/16 07:42:13;;;;;;;28.25;16.10;;;;;;;;;;5000765;28;20038;-81
2021/12/16 07:44:39;;;;;;;29.40;15.10;;;;;;;;;;5001618;28;20035;-82
2021/12/16 07:47:07;;;;;;;31.27;16.30;;;;;;;;;;5003651;28;20672;-80
2021/12/16 07:49:35;;;;;;;23.98;14.20;;;;;;;;;;4978345;28;20019;-80
2021/12/16 07:52:02;;;;;;;23.33;13.13;;;;;;;;;;4982058;28;20035;-80
2021/12/16 07:54:28;;;;;;;21.73;13.18;;;;;;;;;;4979862;28;20030;-81
2021/12/16 07:56:55;;;;;;;23.00;12.13;;;;;;;;;;4982202;28;20030;-81
2021/12/16 07:59:22;;;;;;;25.52;13.50;;;;;;;;;;4981527;28;20027;-81
2021/12/16 08:01:48;;;;;;;28.48;12.65;;;;;;;;;;4983282;28;20022;-82
2021/12/16 08:04:20;;;;;;;24.17;12.32;;;;;;;;;;4984666;28;20066;-83
2021/12/16 08:06:48;;;;;;;22.00;11.93;;;;;;;;;;4965309;28;20027;-82
2021/12/16 08:09:14;;;;;;;22.10;11.52;;;;;;;;;;4976031;28;20018;-81
2021/12/16 08:11:41;;;;;;;22.00;11.52;;;;;;;;;;4996481;28;20049;-83
2021/12/16 08:14:08;;;;;;;20.52;11.23;;;;;;;;;;4990286;28;20423;-83
2021/12/16 08:16:34;;;;;;;20.42;10.55;;;;;;;;;;5008176;28;20507;-86
2021/12/16 08:19:00;;;;;;;17.50;10.90;;;;;;;;;;4981081;28;20086;-81
2021/12/16 08:21:29;;;;;;;23.02;10.73;;;;;;;;;;4980380;28;20031;-83
2021/12/16 08:24:02;;;;;;;20.70;11.10;;;;;;;;;;4967683;28;20038;-85
2021/12/16 08:26:29;;;;;;;21.17;11.38;;;;;;;;;;4974915;28;20026;-85
2021/12/16 08:28:56;;;;;;;23.13;12.02;;;;;;;;;;4999493;28;20046;-84
2021/12/16 08:31:22;;;;;;;18.33;10.10;;;;;;;;;;4988308;28;20046;-85
2021/12/16 08:33:48;;;;;;;17.67;10.13;;;;;;;;;;4982447;28;20054;-84
2021/12/16 08:36:15;;;;;;;20.00;10.40;;;;;;;;;;4987339;28;20026;-86
2021/12/16 08:38:41;;;;;;;16.27;9.40;;;;;;;;;;4987921;28;20392;-84
2021/12/16 08:41:10;;;;;;;17.38;10.50;;;;;;;;;;4988117;28;20030;-84
2021/12/16 08:43:39;;;;;;;16.58;10.35;;;;;;;;;;4989377;28;20023;-83
2021/12/16 08:46:07;;;;;;;18.50;10.25;;;;;;;;;;4987442;28;20027;-86
2021/12/16 08:48:33;;;;;;;19.63;10.85;;;;;;;;;;4996076;28;20019;-82
2021/12/16 08:50:59;;;;;;;23.05;10.65;;;;;;;;;;4986890;28;20054;-83
2021/12/16 08:53:28;;;;;;;18.33;9.93;;;;;;;;;;4992222;28;20074;-83
2021/12/16 08:55:55;;;;;;;16.08;9.05;;;;;;;;;;4994167;28;20118;-78
2021/12/16 08:58:22;;;;;;;16.05;9.10;;;;;;;;;;4986795;28;20037;-82
2021/12/16 09:00:51;;;;;;;18.95;10.73;;;;;;;;;;4999717;28;20033;-84
2021/12/16 09:03:17;;;;;;;15.75;8.52;;;;;;;;;;4986410;28;20035;-84
2021/12/16 09:05:43;;;;;;;17.08;9.30;;;;;;;;;;4989270;28;20042;-84
2021/12/16 09:08:09;;;;;;;14.13;9.07;;;;;;;;;;4988042;28;20499;-83
2021/12/16 09:18:24;;;;;;;15.32;8.68;;;;;;;;;;3283034;26;20037;-81
2021/12/16 09:20:51;;;;;;;16.00;9.20;;;;;;;;;;5019803;28;20022;-83
2021/12/16 09:23:17;;;;;;;22.30;9.38;;;;;;;;;;5013139;28;20071;-83
2021/12/16 09:31:48;;;;;;;19.05;10.32;;;;;;;;;;5053699;22;20072;-82
2021/12/16 09:34:14;;;;;;;19.77;10.45;;;;;;;;;;5017205;28;20029;-84
2021/12/16 09:40:16;;;;;;;17.13;9.75;;;;;;;;;;4963287;29;20027;-84
2021/12/16 09:42:43;;;;;;;19.17;11.32;;;;;;;;;;4978221;28;20090;-83
2021/12/16 09:45:10;;;;;;;22.65;10.63;;;;;;;;;;5023244;28;20030;-82
2021/12/16 09:47:38;;;;;;;21.25;10.90;;;;;;;;;;5007969;28;20041;-84
2021/12/16 09:50:09;;;;;;;20.45;12.38;;;;;;;;;;5024613;28;20046;-82
2021/12/16 09:52:35;;;;;;;20.63;11.80;;;;;;;;;;5025781;28;20390;-84
2021/12/16 09:55:01;;;;;;;24.05;11.90;;;;;;;;;;5025309;28;20033;-84
2021/12/16 09:57:28;;;;;;;22.45;11.02;;;;;;;;;;5007522;28;20041;-83
2021/12/16 09:59:58;;;;;;;22.52;11.45;;;;;;;;;;5041727;28;20037;-82
2021/12/16 10:02:27;;;;;;;22.35;12.10;;;;;;;;;;5031231;28;20029;-82
2021/12/16 10:04:53;;;;;;;20.95;11.95;;;;;;;;;;5024765;28;20367;-84
2021/12/16 10:07:24;;;;;;;20.73;11.85;;;;;;;;;;5023632;28;20029;-82
2021/12/16 10:09:51;;;;;;;20.08;10.48;;;;;;;;;;5024717;28;20085;-82
2021/12/16 10:12:22;;;;;;;20.13;10.68;;;;;;;;;;5023663;28;20084;-82
2021/12/16 10:19:47;;;;;;;17.67;10.18;;;;;;;;;;5025309;28;20041;-82
2021/12/16 10:22:16;;;;;;;16.85;9.68;;;;;;;;;;5025587;28;20022;-84
2021/12/16 10:24:45;;;;;;;16.05;9.80;;;;;;;;;;5025015;28;20100;-83
2021/12/16 10:27:16;;;;;;;16.05;9.32;;;;;;;;;;5026297;28;20026;-80
2021/12/16 10:29:45;;;;;;;22.13;9.25;;;;;;;;;;5012179;28;20033;-85
2021/12/16 10:32:52;;;;;;;14.27;7.97;;;;;;;;;;5034462;28;20037;-81
2021/12/16 10:35:38;;;;;;;14.20;8.85;;;;;;;;;;4941109;29;20044;-81
2021/12/16 10:38:32;;;;;;;13.57;7.78;;;;;;;;;;4939161;29;20054;-83
2021/12/16 10:41:36;;;;;;;9.45;6.63;;;;;;;;;;4994790;28;20105;-82
2021/12/16 10:44:12;;;;;;;15.07;6.30;;;;;;;;;;5025385;28;20109;-83
2021/12/16 10:49:43;;;;;;;12.27;5.63;;;;;;;;;;5039191;28;20029;-83
2021/12/16 10:52:11;;;;;;;13.75;6.10;;;;;;;;;;5030053;28;20082;-81
2021/12/16 10:54:46;;;;;;;11.15;5.72;;;;;;;;;;5031017;28;20098;-82
2021/12/16 10:57:27;;;;;;;11.90;6.03;;;;;;;;;;5030086;28;20042;-83
2021/12/16 11:00:25;;;;;;;;;;;;;;;;;;;;;
2021/12/16 11:09:46;;;;;;;;;;;;;;;;;;;;;
2021/12/16 11:12:15;;;;;;;6.93;3.70;;;;;;;;;;5048214;28;20077;-83
2021/12/16 11:14:43;;;;;;;7.60;3.80;;;;;;;;;;5026567;28;20026;-83
2021/12/16 11:17:14;;;;;;;6.70;3.80;;;;;;;;;;5018978;28;20030;-80
2021/12/16 11:19:41;;;;;;;6.07;3.65;;;;;;;;;;5031005;28;20097;-82
2021/12/16 11:22:07;;;;;;;8.23;3.15;;;;;;;;;;5032073;28;20089;-83
2021/12/16 11:24:33;;;;;;;6.95;3.25;;;;;;;;;;5024545;28;20026;-83
2021/12/16 11:26:59;;;;;;;7.18;3.10;;;;;;;;;;5024546;28;20029;-83
2021/12/16 11:29:31;;;;;;;7.47;3.17;;;;;;;;;;5007660;28;20507;-81
2021/12/16 11:31:57;;;;;;;5.13;2.70;;;;;;;;;;5037585;28;20085;-83
2021/12/16 11:34:23;;;;;;;5.05;2.70;;;;;;;;;;5046714;28;20021;-83
2021/12/16 11:36:54;;;;;;;7.22;2.28;;;;;;;;;;5047477;28;20025;-82
2021/12/16 11:39:27;;;;;;;5.33;2.43;;;;;;;;;;5029197;28;20547;-84
2021/12/16 11:41:56;;;;;;;6.25;2.40;;;;;;;;;;5046137;28;20260;-84
2021/12/16 11:44:28;;;;;;;3.58;2.28;;;;;;;;;;5048134;28;20087;-84
2021/12/16 11:46:58;;;;;;;11.05;2.47;;;;;;;;;;5045208;28;20029;-84
2021/12/16 11:49:30;;;;;;;7.55;2.65;;;;;;;;;;5046290;28;20077;-82
2021/12/16 11:52:05;;;;;;;5.90;2.80;;;;;;;;;;5047093;22;20134;-85
2021/12/16 11:54:36;;;;;;;5.28;2.47;;;;;;;;;;5022348;28;20779;-87
2021/12/16 11:57:08;;;;;;;3.28;2.20;;;;;;;;;;5018342;28;20086;-86
2021/12/16 11:59:40;;;;;;;6.82;2.78;;;;;;;;;;5000316;28;20089;-86
2021/12/16 12:02:06;;;;;;;5.55;2.50;;;;;;;;;;5017420;28;20014;-87
2021/12/16 12:04:34;;;;;;;5.40;2.90;;;;;;;;;;5016520;28;20068;-85
2021/12/16 12:07:09;;;;;;;5.15;2.55;;;;;;;;;;5004102;28;20065;-85
2021/12/16 12:09:38;;;;;;;7.32;2.97;;;;;;;;;;4983804;28;20030;-85
2021/12/16 12:12:07;;;;;;;4.07;2.50;;;;;;;;;;4992175;28;20037;-86
2021/12/16 12:14:36;;;;;;;2.80;2.15;;;;;;;;;;5002632;28;20049;-86
2021/12/16 12:17:21;;;;;;;6.53;2.72;;;;;;;;;;5002241;28;20037;-87
2021/12/16 12:19:49;;;;;;;3.60;2.20;;;;;;;;;;5016007;28;20030;-85
2021/12/16 12:22:21;;;;;;;9.75;2.90;;;;;;;;;;5002998;28;20042;-85
2021/12/16 12:24:47;;;;;;;6.82;3.50;;;;;;;;;;5005293;28;20361;-85
2021/12/16 12:27:18;;;;;;;7.53;2.55;;;;;;;;;;4991165;28;20026;-87
2021/12/16 12:29:48;;;;;;;4.80;2.58;;;;;;;;;;5001767;28;20018;-85
2021/12/16 12:32:22;;;;;;;7.30;2.65;;;;;;;;;;4984756;28;20034;-85
2021/12/16 12:34:50;;;;;;;2.97;1.95;;;;;;;;;;4983973;28;20071;-85
2021/12/16 12:37:19;;;;;;;7.45;2.47;;;;;;;;;;5001242;28;20034;-85
2021/12/16 12:39:48;;;;;;;2.97;2.25;;;;;;;;;;5005988;28;20050;-82
2021/12/16 12:42:15;;;;;;;5.82;2.72;;;;;;;;;;4987533;28;20054;-86
2021/12/16 12:44:41;;;;;;;5.07;2.55;;;;;;;;;;5002907;28;20033;-83
2021/12/16 12:47:10;;;;;;;6.40;3.13;;;;;;;;;;4983799;28;20031;-85
2021/12/16 12:49:36;;;;;;;4.63;2.50;;;;;;;;;;5001730;28;20090;-83
2021/12/16 12:52:11;;;;;;;5.85;2.58;;;;;;;;;;5003039;28;20452;-87
2021/12/16 12:54:42;;;;;;;5.05;2.53;;;;;;;;;;5001055;28;20080;-85
2021/12/16 12:57:28;;;;;;;3.92;2.30;;;;;;;;;;4983235;28;20026;-86
2021/12/16 12:59:55;;;;;;;8.32;2.38;;;;;;;;;;4982463;28;20033;-87
2021/12/16 13:02:24;;;;;;;4.93;2.47;;;;;;;;;;5000722;28;20030;-87
2021/12/16 13:04:53;;;;;;;3.72;2.67;;;;;;;;;;5013051;28;20025;-87
2021/12/16 13:07:19;;;;;;;3.10;2.30;;;;;;;;;;5012369;28;20030;-87
2021/12/16 13:09:51;;;;;;;4.80;2.55;;;;;;;;;;5001691;28;20475;-86
2021/12/16 13:12:36;;;;;;;4.38;2.50;;;;;;;;;;5000132;28;20022;-86
2021/12/16 13:15:12;;;;;;;3.85;2.50;;;;;;;;;;4980967;28;20042;-84
2021/12/16 13:23:30;;;;;;;5.80;2.90;;;;;;;;;;4979059;28;20041;-86
2021/12/16 13:26:22;;;;;;;5.30;2.40;;;;;;;;;;4996802;28;20065;-85
2021/12/16 13:29:01;;;;;;;3.65;2.35;;;;;;;;;;5003541;28;20083;-86
2021/12/16 13:32:10;;;;;;;3.85;2.28;;;;;;;;;;5005078;28;20034;-83
2021/12/16 13:34:41;;;;;;;4.03;2.28;;;;;;;;;;5004090;28;20030;-84
2021/12/16 13:37:11;;;;;;;3.85;2.40;;;;;;;;;;4997395;28;20026;-84
2021/12/16 13:39:42;;;;;;;4.63;2.20;;;;;;;;;;5013245;28;20030;-84
2021/12/16 13:42:13;;;;;;;4.15;2.70;;;;;;;;;;4991115;28;20034;-86
2021/12/16 13:44:41;;;;;;;5.50;2.42;;;;;;;;;;4982539;28;20101;-85
2021/12/16 13:47:26;;;;;;;4.93;2.60;;;;;;;;;;4981357;28;20030;-84
2021/12/16 14:03:43;;;;;;;4.65;2.42;;;;;;;;;;5002904;28;20037;-84
2021/12/16 14:06:14;;;;;;;4.10;2.30;;;;;;;;;;5002247;28;20030;-84
2021/12/16 14:08:45;;;;;;;3.70;2.50;;;;;;;;;;5007841;28;20099;-84
2021/12/16 14:12:43;;;;;;;5.45;3.10;;;;;;;;;;5008204;28;20024;-83
2021/12/16 14:14:44;;;;;;;6.90;3.13;;;;;;;;;;5005065;28;20061;-83
2021/12/16 14:17:11;;;;;;;4.07;3.05;;;;;;;;;;5019405;28;20071;-84
2021/12/16 14:25:20;;;;;;;7.55;2.53;;;;;;;;;;5018091;28;20092;-85
2021/12/16 14:44:08;;;;;;;;;;;;;;;;;;5004665;28;20491;-85
2021/12/16 14:46:43;;;;;;;4.32;2.88;;;;;;;;;;4999331;28;19936;-85
2021/12/16 14:49:09;;;;;;;6.10;2.50;;;;;;;;;;4979662;28;20018;-85
2021/12/16 14:51:35;;;;;;;3.95;2.70;;;;;;;;;;4985249;28;20038;-85
2021/12/16 14:54:01;;;;;;;4.70;2.42;;;;;;;;;;5004921;28;20031;-85
2021/12/16 14:56:29;;;;;;;3.60;2.28;;;;;;;;;;4998627;28;20093;-85
2021/12/16 14:58:57;;;;;;;5.10;2.42;;;;;;;;;;5004102;28;20103;-84
2021/12/16 15:01:26;;;;;;;7.13;2.90;;;;;;;;;;5020022;28;20479;-85
2021/12/16 15:03:53;;;;;;;4.15;2.40;;;;;;;;;;5024674;28;20016;-86
2021/12/16 15:06:24;;;;;;;3.70;2.22;;;;;;;;;;5015024;28;20087;-85
2021/12/16 15:09:19;;;;;;;6.45;2.97;;;;;;;;;;4986487;28;20019;-85
2021/12/16 15:12:08;;;;;;;5.03;2.30;;;;;;;;;;5019571;28;20049;-85
2021/12/16 15:44:19;;;;;;;6.65;2.70;;;;;;;;;;5000764;28;20084;-85
2021/12/16 15:46:45;;;;;;;2.60;2.20;;;;;;;;;;5000690;28;20443;-85
2021/12/16 15:49:11;;;;;;;8.70;2.50;;;;;;;;;;5006580;28;20105;-84
2021/12/16 15:51:37;;;;;;;5.95;2.67;;;;;;;;;;5000379;28;20125;-84
2021/12/16 15:54:04;;;;;;;6.32;2.10;;;;;;;;;;5000308;28;20027;-85
2021/12/16 15:56:35;;;;;;;4.47;2.67;;;;;;;;;;4980477;28;20041;-85
2021/12/16 15:59:05;;;;;;;5.68;2.60;;;;;;;;;;4981386;28;20022;-84
2021/12/16 16:01:33;;;;;;;6.38;2.30;;;;;;;;;;5001769;28;20080;-85
2021/12/16 16:04:01;;;;;;;4.10;2.55;;;;;;;;;;4984571;28;20026;-84
2021/12/16 16:06:29;;;;;;;4.15;2.33;;;;;;;;;;4986507;28;20030;-85
2021/12/16 16:08:56;;;;;;;3.70;3.28;;;;;;;;;;5006484;28;20030;-85
2021/12/16 16:11:26;;;;;;;4.00;2.80;;;;;;;;;;5001813;28;20023;-85
2021/12/16 16:13:56;;;;;;;6.40;2.95;;;;;;;;;;5000727;28;20562;-83
2021/12/16 16:16:27;;;;;;;6.32;3.15;;;;;;;;;;5007767;28;20018;-83
2021/12/16 16:18:56;;;;;;;6.33;3.47;;;;;;;;;;5005517;28;20071;-83
2021/12/16 16:21:36;;;;;;;4.78;3.33;;;;;;;;;;5025746;28;20018;-84
2021/12/16 16:24:05;;;;;;;5.28;3.45;;;;;;;;;;5003778;28;20033;-84
2021/12/16 16:26:57;;;;;;;7.47;3.35;;;;;;;;;;5005925;28;20041;-86
2021/12/16 16:29:25;;;;;;;7.63;4.03;;;;;;;;;;5017365;28;20110;-85
2021/12/16 16:31:51;;;;;;;9.93;4.43;;;;;;;;;;5014656;28;20022;-86
2021/12/16 16:34:19;;;;;;;7.85;4.22;;;;;;;;;;5019741;28;20122;-83
2021/12/16 16:36:50;;;;;;;6.22;3.63;;;;;;;;;;5001029;28;20056;-85
2021/12/16 16:39:18;;;;;;;6.25;3.78;;;;;;;;;;4985404;28;20022;-86
2021/12/16 16:41:45;;;;;;;8.80;3.50;;;;;;;;;;4996720;28;20395;-87
2021/12/16 16:44:13;;;;;;;6.40;4.22;;;;;;;;;;4979211;28;20088;-85
2021/12/16 16:46:45;;;;;;;5.05;3.63;;;;;;;;;;4998473;28;20030;-85
2021/12/16 16:49:24;;;;;;;5.72;3.33;;;;;;;;;;4997573;28;20030;-86
2021/12/16 16:51:50;;;;;;;13.52;5.03;;;;;;;;;;4980214;28;20519;-85
2021/12/16 16:54:30;;;;;;;7.28;3.63;;;;;;;;;;4998571;28;20082;-85
2021/12/16 16:57:02;;;;;;;6.43;3.67;;;;;;;;;;4980965;28;20048;-85
2021/12/16 16:59:36;;;;;;;5.38;3.58;;;;;;;;;;5016127;28;20018;-89
2021/12/16 17:02:03;;;;;;;5.53;3.08;;;;;;;;;;5010644;28;20035;-84
2021/12/16 17:04:32;;;;;;;7.95;4.63;;;;;;;;;;4995547;28;20018;-86
2021/12/16 17:06:59;;;;;;;7.97;3.45;;;;;;;;;;4995247;28;20030;-83
2021/12/16 17:09:31;;;;;;;7.20;3.70;;;;;;;;;;4977627;28;20062;-84
2021/12/16 17:11:57;;;;;;;9.52;3.95;;;;;;;;;;4997004;28;20116;-85
2021/12/16 17:14:34;;;;;;;6.15;3.22;;;;;;;;;;4981324;28;20019;-83
2021/12/16 17:20:05;;;;;;;5.88;3.70;;;;;;;;;;5004485;28;20041;-85
2021/12/16 17:22:36;;;;;;;5.90;3.33;;;;;;;;;;4978587;28;20039;-82
2021/12/16 17:25:04;;;;;;;9.65;3.70;;;;;;;;;;4978634;28;20023;-84
2021/12/16 17:27:39;;;;;;;4.40;3.13;;;;;;;;;;4976452;28;20065;-85
2021/12/16 17:30:10;;;;;;;9.57;4.38;;;;;;;;;;4998615;28;20027;-83
2021/12/16 17:32:40;;;;;;;6.28;3.95;;;;;;;;;;4980321;28;20050;-83
2021/12/16 17:35:10;;;;;;;7.13;4.38;;;;;;;;;;4986882;28;20029;-84
2021/12/16 17:37:38;;;;;;;7.32;4.13;;;;;;;;;;5019321;28;20620;-81
2021/12/16 17:40:09;;;;;;;6.68;4.47;;;;;;;;;;5000192;28;20030;-82
2021/12/16 17:42:38;;;;;;;11.68;4.78;;;;;;;;;;5018321;28;20033;-83
2021/12/16 17:45:07;;;;;;;10.20;4.35;;;;;;;;;;5018860;28;20061;-83
2021/12/16 17:47:35;;;;;;;8.27;4.68;;;;;;;;;;4999512;28;20034;-81
2021/12/16 17:50:02;;;;;;;11.90;5.60;;;;;;;;;;5017355;28;20376;-83
2021/12/16 17:52:32;;;;;;;10.60;6.00;;;;;;;;;;5047731;22;20095;-82
2021/12/16 17:55:00;;;;;;;10.95;5.15;;;;;;;;;;5031237;28;20052;-83
2021/12/16 17:57:34;;;;;;;13.75;6.57;;;;;;;;;;5029804;28;20110;-82
2021/12/16 18:00:01;;;;;;;15.20;7.18;;;;;;;;;;5029100;28;20026;-82
2021/12/16 18:02:28;;;;;;;11.05;6.53;;;;;;;;;;5015624;28;20031;-83
2021/12/16 18:04:56;;;;;;;11.07;6.18;;;;;;;;;;5009247;28;20030;-83
2021/12/16 18:07:23;;;;;;;11.20;6.15;;;;;;;;;;4992229;28;20167;-83
2021/12/16 18:09:49;;;;;;;12.27;6.28;;;;;;;;;;5010466;28;20407;-82
2021/12/16 18:12:27;;;;;;;10.82;6.38;;;;;;;;;;5011211;28;20046;-82
2021/12/16 18:14:55;;;;;;;8.70;5.63;;;;;;;;;;4991971;28;20034;-82
2021/12/16 18:17:27;;;;;;;11.85;5.10;;;;;;;;;;5007521;28;20031;-82
2021/12/16 18:19:56;;;;;;;9.18;4.65;;;;;;;;;;4989686;28;20511;-81
2021/12/16 18:22:25;;;;;;;10.07;4.85;;;;;;;;;;4991758;28;20034;-82
2021/12/16 18:24:53;;;;;;;7.63;4.70;;;;;;;;;;5009534;28;20027;-81
2021/12/16 18:27:26;;;;;;;9.35;5.30;;;;;;;;;;5008310;28;20034;-81
2021/12/16 18:29:57;;;;;;;9.73;4.35;;;;;;;;;;5009143;28;20027;-81
2021/12/16 18:32:35;;;;;;;5.93;4.07;;;;;;;;;;5010723;28;20053;-81
2021/12/16 18:35:01;;;;;;;7.93;4.18;;;;;;;;;;5011583;28;20026;-82
2021/12/16 18:37:29;;;;;;;7.13;4.68;;;;;;;;;;5016162;28;20267;-81
2021/12/16 18:39:55;;;;;;;9.02;4.53;;;;;;;;;;5002116;28;20027;-82
2021/12/16 18:42:24;;;;;;;6.55;4.30;;;;;;;;;;4983867;28;20475;-81
2021/12/16 18:44:55;;;;;;;12.25;4.90;;;;;;;;;;4996628;28;20032;-80
2021/12/16 18:47:40;;;;;;;;;;;;;;;;;;4998331;28;20026;-81
2021/12/16 18:50:15;;;;;;;8.10;4.35;;;;;;;;;;4997992;28;20453;-80
2021/12/16 18:55:15;;;;;;;7.13;4.18;;;;;;;;;;4994012;28;20312;-80
2021/12/16 18:57:41;;;;;;;8.85;4.50;;;;;;;;;;4994414;28;20023;-80
2021/12/16 19:00:08;;;;;;;5.65;3.88;;;;;;;;;;4993589;28;20023;-81
2021/12/16 19:02:34;;;;;;;8.20;4.32;;;;;;;;;;4995639;28;20113;-80
2021/12/16 19:05:00;;;;;;;8.85;4.75;;;;;;;;;;4997792;28;20480;-80
2021/12/16 19:07:29;;;;;;;9.40;4.85;;;;;;;;;;4997484;28;20034;-81
2021/12/16 19:09:56;;;;;;;7.53;4.80;;;;;;;;;;4998882;28;20105;-81
2021/12/16 19:12:24;;;;;;;6.50;4.70;;;;;;;;;;5006943;28;20025;-80